Time;durP1;ratioP1;P1;durP2;ratioP2;P2;SDS_P1;SDS_P2;PMS_P1;PMS_P2;Temp;Humidity;BMP_temperature;BMP_pressure;BME280_temperature;BME280_humidity;BME280_pressure;Samples;Min_cycle;Max_cycle;Signal;HPM_P1;HPM_P2
2022/09/23 00:01:40;;;;;;;5.45;3.75;;;;;;;6.24;100.00;96106.97;5051780;28;24431;-71
2022/09/23 00:04:06;;;;;;;4.30;3.30;;;;;;;6.16;100.00;96103.88;5054952;28;20778;-71
2022/09/23 00:06:32;;;;;;;4.80;3.25;;;;;;;6.17;100.00;96105.53;5057892;28;24439;-71
2022/09/23 00:08:59;;;;;;;5.82;3.17;;;;;;;6.00;100.00;96107.03;5055101;28;24431;-71
2022/09/23 00:11:27;;;;;;;4.43;3.35;;;;;;;6.00;100.00;96104.47;5059373;28;24431;-71
2022/09/23 00:13:56;;;;;;;8.63;3.20;;;;;;;6.02;100.00;96102.69;5052557;28;24454;-71
2022/09/23 00:16:25;;;;;;;4.97;3.00;;;;;;;6.06;100.00;96099.09;5057025;28;24442;-71
2022/09/23 00:18:53;;;;;;;3.57;2.60;;;;;;;6.12;100.00;96103.16;5052067;28;20766;-71
2022/09/23 00:21:21;;;;;;;3.65;2.95;;;;;;;6.10;100.00;96101.53;5051525;28;24446;-71
2022/09/23 00:23:49;;;;;;;5.15;2.75;;;;;;;6.17;100.00;96101.25;5051246;28;24431;-71
2022/09/23 00:26:18;;;;;;;3.47;2.60;;;;;;;6.12;100.00;96098.03;5058616;28;21317;-71
2022/09/23 00:28:44;;;;;;;4.10;2.78;;;;;;;6.10;100.00;96098.97;5051848;28;24505;-71
2022/09/23 00:31:13;;;;;;;5.53;2.70;;;;;;;6.11;100.00;96098.91;5051464;28;24443;-71
2022/09/23 00:33:40;;;;;;;3.38;2.70;;;;;;;6.14;100.00;96092.81;5051087;28;24451;-71
2022/09/23 00:36:10;;;;;;;5.85;2.80;;;;;;;6.20;100.00;96095.16;5050392;28;24450;-71
2022/09/23 00:38:37;;;;;;;6.93;2.33;;;;;;;6.07;100.00;96095.63;5051350;28;24463;-71
2022/09/23 00:41:05;;;;;;;4.57;2.42;;;;;;;6.03;100.00;96093.22;5058661;28;24423;-71
2022/09/23 00:43:40;;;;;;;3.00;2.08;;;;;;;6.05;100.00;96092.28;5051051;28;24438;-71
2022/09/23 00:46:08;;;;;;;3.00;2.40;;;;;;;5.86;100.00;96086.16;5051230;28;24817;-71
2022/09/23 00:48:36;;;;;;;4.40;2.40;;;;;;;5.80;100.00;96083.81;5056732;28;24470;-71
2022/09/23 00:51:05;;;;;;;3.30;2.47;;;;;;;5.83;100.00;96084.53;5058601;28;20775;-71
2022/09/23 00:53:33;;;;;;;4.07;2.63;;;;;;;5.87;100.00;96085.25;5050826;28;24454;-71
2022/09/23 00:56:06;;;;;;;4.65;2.65;;;;;;;5.92;100.00;96083.38;5051041;28;24435;-71
2022/09/23 00:58:35;;;;;;;4.43;2.97;;;;;;;5.84;100.00;96080.25;5051093;28;24439;-71
2022/09/23 01:01:04;;;;;;;4.18;2.92;;;;;;;5.77;100.00;96082.19;5050750;28;25086;-71
2022/09/23 01:03:31;;;;;;;2.97;2.67;;;;;;;5.75;100.00;96068.59;5050569;28;24427;-71
2022/09/23 01:05:59;;;;;;;2.58;2.33;;;;;;;5.75;100.00;96076.31;5054279;28;24433;-71
2022/09/23 01:08:27;;;;;;;2.88;2.03;;;;;;;5.77;100.00;96073.66;5057272;28;24438;-71
2022/09/23 01:11:02;;;;;;;3.83;2.30;;;;;;;5.74;100.00;96068.63;5054045;28;20768;-71
2022/09/23 01:13:40;;;;;;;3.80;2.05;;;;;;;5.78;100.00;96068.47;5043580;28;24451;-71
2022/09/23 01:16:16;;;;;;;2.63;2.42;;;;;;;5.70;100.00;96070.47;5050478;28;24446;-71
2022/09/23 01:18:51;;;;;;;2.72;2.30;;;;;;;5.73;100.00;96064.41;5050920;28;21386;-71
2022/09/23 01:21:34;;;;;;;3.05;2.30;;;;;;;5.72;100.00;96068.72;5050224;28;20778;-71
2022/09/23 01:24:20;;;;;;;3.10;2.37;;;;;;;5.71;100.00;96061.91;5050246;28;20838;-71
2022/09/23 01:27:09;;;;;;;3.67;2.33;;;;;;;5.73;100.00;96065.22;5050629;28;21282;-71
2022/09/23 01:30:05;;;;;;;3.85;2.65;;;;;;;5.81;100.00;96067.50;5045475;28;24435;-71
2022/09/23 01:32:49;;;;;;;5.50;2.60;;;;;;;5.74;100.00;96063.50;5042932;28;20740;-71
2022/09/23 01:35:26;;;;;;;2.45;2.20;;;;;;;5.67;100.00;96059.50;5052059;28;24798;-71
2022/09/23 01:37:59;;;;;;;3.15;2.15;;;;;;;5.71;100.00;96054.19;5053543;28;24447;-71
2022/09/23 01:40:35;;;;;;;4.93;2.50;;;;;;;5.58;100.00;96052.97;5046412;28;24976;-71
2022/09/23 01:43:06;;;;;;;3.00;2.30;;;;;;;5.57;100.00;96057.28;5049587;28;24431;-71
2022/09/23 01:45:36;;;;;;;4.07;2.42;;;;;;;5.58;100.00;96053.81;5050479;28;24635;-71
2022/09/23 01:48:12;;;;;;;3.80;2.58;;;;;;;5.62;100.00;96046.81;5057709;28;20815;-71
2022/09/23 01:50:58;;;;;;;2.75;2.22;;;;;;;5.51;100.00;96049.81;5060464;28;24965;-71
2022/09/23 01:53:31;;;;;;;4.40;2.50;;;;;;;5.55;100.00;96047.97;5049633;28;24988;-71
2022/09/23 01:56:02;;;;;;;3.13;2.55;;;;;;;5.52;100.00;96036.06;5055378;28;24850;-71
2022/09/23 01:58:33;;;;;;;2.85;2.50;;;;;;;5.44;100.00;96038.09;5058152;28;24442;-71
2022/09/23 02:01:03;;;;;;;2.70;2.20;;;;;;;5.38;100.00;96029.78;5054805;28;24438;-71
2022/09/23 02:03:35;;;;;;;3.97;2.78;;;;;;;5.31;100.00;96026.63;5049610;28;24454;-71
2022/09/23 02:06:06;;;;;;;3.25;2.20;;;;;;;5.31;100.00;96018.91;5053888;28;24979;-71
2022/09/23 02:08:37;;;;;;;2.58;2.20;;;;;;;5.38;100.00;96038.34;5056144;28;24794;-71
2022/09/23 02:11:08;;;;;;;2.35;2.08;;;;;;;5.40;100.00;96028.81;5047015;28;24430;-71
2022/09/23 02:13:40;;;;;;;2.95;2.00;;;;;;;5.48;100.00;96028.53;5049723;28;24454;-71
2022/09/23 02:16:12;;;;;;;2.47;1.90;;;;;;;5.57;100.00;96028.19;5049418;28;24677;-71
2022/09/23 02:18:45;;;;;;;2.28;1.92;;;;;;;5.52;100.00;96033.47;5050502;28;24509;-71
2022/09/23 02:21:14;;;;;;;2.45;2.25;;;;;;;5.47;100.00;96030.28;5050314;28;24470;-71
2022/09/23 02:23:45;;;;;;;3.53;2.10;;;;;;;5.47;100.00;96030.28;5051074;28;24450;-71
2022/09/23 02:26:18;;;;;;;2.50;2.08;;;;;;;5.49;100.00;96025.94;5050313;28;24427;-71
2022/09/23 02:28:53;;;;;;;2.17;1.98;;;;;;;5.40;100.00;96025.44;5049252;28;24427;-71
2022/09/23 02:31:30;;;;;;;3.30;2.28;;;;;;;5.33;100.00;96025.66;5055768;28;24434;-71
2022/09/23 02:34:08;;;;;;;2.30;1.92;;;;;;;5.29;100.00;96016.41;5048777;28;24871;-71
2022/09/23 02:36:44;;;;;;;3.17;2.10;;;;;;;5.37;100.00;96021.25;5056493;28;20704;-71
2022/09/23 02:39:13;;;;;;;2.57;2.03;;;;;;;5.34;100.00;96022.22;5051727;28;20812;-71
2022/09/23 02:41:49;;;;;;;2.63;2.08;;;;;;;5.18;100.00;96023.66;5049206;28;20807;-71
2022/09/23 02:44:18;;;;;;;3.00;2.20;;;;;;;5.13;100.00;96028.16;5036072;28;24518;-71
2022/09/23 02:46:45;;;;;;;2.30;2.10;;;;;;;5.05;100.00;96023.31;5048922;28;24533;-71
2022/09/23 02:49:17;;;;;;;2.65;1.80;;;;;;;5.09;100.00;96021.47;5052957;28;24998;-71
2022/09/23 02:51:45;;;;;;;2.73;2.00;;;;;;;5.13;100.00;96024.75;5048771;28;24439;-71
2022/09/23 02:54:15;;;;;;;2.70;1.80;;;;;;;5.19;100.00;96019.38;5047387;28;24538;-71
2022/09/23 02:56:42;;;;;;;3.70;1.90;;;;;;;5.25;100.00;96011.44;5049230;28;24442;-71
2022/09/23 02:59:10;;;;;;;2.47;1.90;;;;;;;5.29;100.00;96013.00;5054641;28;24491;-71
2022/09/23 03:01:46;;;;;;;2.78;1.85;;;;;;;5.31;100.00;96006.91;5054731;28;24438;-71
2022/09/23 03:04:21;;;;;;;2.50;2.05;;;;;;;5.30;100.00;96001.81;5051635;28;24480;-71
2022/09/23 03:06:58;;;;;;;3.25;2.05;;;;;;;5.27;100.00;96004.53;5049675;28;21325;-71
2022/09/23 03:09:31;;;;;;;2.90;2.03;;;;;;;5.21;100.00;96003.00;5045821;28;24956;-71
2022/09/23 03:12:12;;;;;;;2.60;1.98;;;;;;;5.19;100.00;95996.25;5055529;28;24972;-71
2022/09/23 03:14:48;;;;;;;3.20;1.90;;;;;;;5.25;100.00;95996.88;5048350;28;24458;-71
2022/09/23 03:17:20;;;;;;;3.38;1.98;;;;;;;5.22;100.00;95998.72;5048668;28;24544;-71
2022/09/23 03:19:54;;;;;;;2.40;2.00;;;;;;;5.22;100.00;95996.16;5049220;28;24427;-71
2022/09/23 03:22:24;;;;;;;2.92;2.20;;;;;;;5.05;100.00;95996.78;5056031;28;24432;-71
2022/09/23 03:24:54;;;;;;;3.80;2.40;;;;;;;4.98;100.00;95988.47;5062255;28;20805;-71
2022/09/23 03:27:24;;;;;;;2.67;2.33;;;;;;;4.94;100.00;95993.78;5050430;28;20891;-71
2022/09/23 03:29:53;;;;;;;3.55;2.58;;;;;;;4.96;100.00;95987.69;5048632;28;24431;-71
2022/09/23 03:32:25;;;;;;;4.17;2.60;;;;;;;4.96;100.00;95997.94;5039964;28;24824;-71
2022/09/23 03:35:00;;;;;;;2.88;2.50;;;;;;;5.03;100.00;95994.28;5053454;28;24815;-71
2022/09/23 03:37:32;;;;;;;2.97;2.10;;;;;;;4.97;100.00;95994.53;5048722;28;24442;-71
2022/09/23 03:40:04;;;;;;;3.03;2.08;;;;;;;4.78;100.00;95990.94;5048602;28;24434;-71
2022/09/23 03:42:33;;;;;;;2.33;1.92;;;;;;;4.75;100.00;95989.34;5043379;28;24431;-71
2022/09/23 03:45:01;;;;;;;2.58;2.00;;;;;;;4.77;100.00;95995.22;5053610;28;24434;-71
2022/09/23 03:47:29;;;;;;;2.72;1.95;;;;;;;4.80;100.00;95987.44;5055781;28;24431;-71
2022/09/23 03:49:57;;;;;;;3.55;2.33;;;;;;;4.87;100.00;95985.47;5048285;28;24996;-71
2022/09/23 03:52:25;;;;;;;3.20;2.20;;;;;;;4.82;100.00;95982.22;5040251;28;24442;-71
2022/09/23 03:54:52;;;;;;;2.38;2.10;;;;;;;4.70;100.00;95987.81;5048662;28;24458;-71
2022/09/23 03:57:20;;;;;;;2.50;2.20;;;;;;;4.63;100.00;95983.78;5051164;28;24929;-73
2022/09/23 03:59:47;;;;;;;3.08;2.10;;;;;;;4.63;100.00;95983.78;5053554;28;25071;-73
2022/09/23 04:02:15;;;;;;;2.35;1.90;;;;;;;4.65;100.00;95984.59;5048018;28;24438;-71
2022/09/23 04:04:42;;;;;;;2.20;2.00;;;;;;;4.67;100.00;95981.06;5053831;28;24439;-71
2022/09/23 04:07:11;;;;;;;3.28;1.95;;;;;;;4.70;100.00;95980.94;5048612;28;24504;-71
2022/09/23 04:09:37;;;;;;;2.70;1.90;;;;;;;4.72;100.00;95981.75;5048367;28;24510;-70
2022/09/23 04:12:05;;;;;;;4.07;2.20;;;;;;;4.77;100.00;95977.28;5056035;28;24438;-71
2022/09/23 04:14:32;;;;;;;2.28;1.92;;;;;;;4.86;100.00;95976.13;5058572;28;24482;-71
2022/09/23 04:16:58;;;;;;;2.78;2.08;;;;;;;4.89;100.00;95973.41;5055548;28;24438;-73
2022/09/23 04:19:25;;;;;;;1.90;1.70;;;;;;;4.91;100.00;95969.06;5051516;28;24434;-72
2022/09/23 04:21:51;;;;;;;2.00;1.80;;;;;;;4.92;100.00;95969.91;5056314;28;24433;-73
2022/09/23 04:24:20;;;;;;;3.70;2.10;;;;;;;4.88;100.00;95968.34;5058822;28;24431;-72
2022/09/23 04:26:50;;;;;;;1.67;1.40;;;;;;;4.83;100.00;95968.53;5054809;28;24779;-72
2022/09/23 04:29:16;;;;;;;3.30;2.17;;;;;;;4.82;100.00;95962.56;5051820;28;24427;-72
2022/09/23 04:31:43;;;;;;;3.25;2.05;;;;;;;4.80;100.00;95964.34;5051082;28;24438;-72
2022/09/23 04:34:09;;;;;;;3.80;2.00;;;;;;;4.68;100.00;95962.22;5051064;28;24534;-72
2022/09/23 04:36:36;;;;;;;3.40;2.08;;;;;;;4.53;100.00;95960.22;5053069;28;24444;-72
2022/09/23 04:39:03;;;;;;;3.08;2.00;;;;;;;4.44;100.00;95963.94;5051520;28;24435;-72
2022/09/23 04:41:31;;;;;;;3.00;1.90;;;;;;;4.44;100.00;95958.81;5051704;28;24432;-72
2022/09/23 04:43:57;;;;;;;2.33;1.90;;;;;;;4.47;100.00;95960.44;5051145;28;24824;-72
2022/09/23 04:46:24;;;;;;;2.75;2.05;;;;;;;4.41;100.00;95960.63;5051531;28;24443;-72
2022/09/23 04:48:50;;;;;;;5.32;2.10;;;;;;;4.40;100.00;95964.09;5023651;23;24479;-78
2022/09/23 04:51:19;;;;;;;5.38;1.98;;;;;;;4.43;100.00;95964.84;4994374;28;24448;-78
2022/09/23 04:53:48;;;;;;;2.80;1.83;;;;;;;4.53;100.00;95973.03;4988157;28;24457;-79
2022/09/23 04:56:17;;;;;;;4.97;2.53;;;;;;;4.48;100.00;95967.22;4992891;28;24818;-78
2022/09/23 04:58:45;;;;;;;6.00;4.20;;;;;;;4.42;100.00;95973.41;4990780;28;24441;-76
2022/09/23 05:01:14;;;;;;;5.22;3.97;;;;;;;4.38;100.00;95968.47;4996325;28;24468;-76
2022/09/23 05:03:41;;;;;;;6.03;3.75;;;;;;;4.35;100.00;95977.91;4989974;28;24433;-76
2022/09/23 05:06:08;;;;;;;5.18;3.80;;;;;;;4.37;100.00;95975.28;4991420;28;24437;-76
2022/09/23 05:08:35;;;;;;;3.15;2.28;;;;;;;4.44;100.00;95974.19;4995524;28;24464;-75
2022/09/23 05:11:04;;;;;;;3.55;2.67;;;;;;;4.50;100.00;95978.28;4997780;28;24444;-76
2022/09/23 05:13:31;;;;;;;6.10;3.58;;;;;;;4.45;100.00;95975.88;4994813;28;25005;-75
2022/09/23 05:16:01;;;;;;;4.75;3.50;;;;;;;4.35;100.00;95979.66;4998324;28;24437;-76
2022/09/23 05:18:27;;;;;;;6.55;3.72;;;;;;;4.26;100.00;95979.97;4991449;28;24523;-76
2022/09/23 05:20:55;;;;;;;6.50;3.30;;;;;;;4.26;100.00;95980.78;4990390;28;24931;-76
2022/09/23 05:23:21;;;;;;;4.90;3.22;;;;;;;4.32;100.00;95988.28;4991023;28;24464;-74
2022/09/23 05:25:48;;;;;;;3.65;2.70;;;;;;;4.48;100.00;95978.31;4991249;28;24822;-74
2022/09/23 05:28:18;;;;;;;3.53;2.60;;;;;;;4.50;100.00;95989.38;4990855;28;24464;-74
2022/09/23 05:30:44;;;;;;;2.72;2.40;;;;;;;4.34;100.00;95985.69;4990752;28;24528;-76
2022/09/23 05:33:13;;;;;;;3.38;2.03;;;;;;;4.32;100.00;95982.31;4990054;28;24436;-76
2022/09/23 05:35:40;;;;;;;3.15;2.05;;;;;;;4.31;100.00;95984.06;4988532;28;25090;-76
2022/09/23 05:38:06;;;;;;;3.28;2.15;;;;;;;4.31;100.00;95984.06;4991467;28;25068;-73
2022/09/23 05:40:33;;;;;;;3.08;2.30;;;;;;;4.39;100.00;95977.81;4991029;28;24540;-75
2022/09/23 05:42:59;;;;;;;4.07;2.60;;;;;;;4.37;100.00;95977.84;4991100;28;24429;-75
2022/09/23 05:45:26;;;;;;;4.10;2.58;;;;;;;4.44;100.00;95981.88;4993376;28;24966;-76
2022/09/23 05:47:52;;;;;;;3.83;2.72;;;;;;;4.48;100.00;95978.31;4991364;28;24908;-75
2022/09/23 05:50:20;;;;;;;4.53;2.90;;;;;;;4.61;100.00;95984.69;4991620;28;24444;-75
2022/09/23 05:52:46;;;;;;;4.57;3.63;;;;;;;4.75;100.00;95985.94;4995083;28;25005;-75
2022/09/23 05:55:13;;;;;;;3.80;3.15;;;;;;;4.84;100.00;95985.59;4991166;28;24457;-75
2022/09/23 05:57:40;;;;;;;5.73;2.63;;;;;;;4.92;100.00;95987.88;4991451;28;24443;-75
2022/09/23 06:00:08;;;;;;;3.73;2.60;;;;;;;4.98;100.00;95987.66;4991230;28;24455;-75
2022/09/23 06:02:34;;;;;;;4.30;2.70;;;;;;;5.10;100.00;95989.75;4996518;28;24460;-74
2022/09/23 06:05:00;;;;;;;3.15;2.78;;;;;;;5.14;100.00;95991.31;4991013;28;24433;-75
2022/09/23 06:07:30;;;;;;;3.78;2.42;;;;;;;5.20;100.00;95992.81;4990970;28;24452;-75
2022/09/23 06:09:56;;;;;;;3.57;2.77;;;;;;;5.33;100.00;95994.00;4987151;28;24439;-75
2022/09/23 06:12:23;;;;;;;4.27;2.70;;;;;;;5.53;100.00;95985.53;4990573;28;24981;-76
2022/09/23 06:14:51;;;;;;;4.17;2.77;;;;;;;5.73;100.00;95992.44;4991330;28;24457;-74
2022/09/23 06:17:18;;;;;;;4.15;2.78;;;;;;;5.84;100.00;95980.00;4991094;28;24444;-74
2022/09/23 06:19:44;;;;;;;3.58;2.95;;;;;;;5.94;100.00;95983.91;4991087;28;24440;-74
2022/09/23 06:22:13;;;;;;;9.70;3.42;;;;;;;6.04;100.00;95979.19;4991030;28;24444;-74
2022/09/23 06:24:41;;;;;;;6.32;4.13;;;;;;;6.10;100.00;95975.53;4990833;28;24838;-74
2022/09/23 06:27:09;;;;;;;6.82;3.35;;;;;;;6.29;100.00;95974.69;4990941;28;24452;-74
2022/09/23 06:29:35;;;;;;;5.47;3.10;;;;;;;6.31;100.00;95969.50;4990942;28;24839;-74
2022/09/23 06:32:02;;;;;;;3.85;2.67;;;;;;;6.18;100.00;95963.19;4990847;28;24529;-75
2022/09/23 06:34:29;;;;;;;4.15;2.80;;;;;;;6.25;100.00;95960.28;4989842;28;24561;-74
2022/09/23 06:36:56;;;;;;;2.60;2.13;;;;;;;6.24;100.00;95966.34;4990799;28;24448;-79
2022/09/23 06:39:23;;;;;;;2.73;2.20;;;;;;;6.26;100.00;95958.56;4990900;28;24532;-77
2022/09/23 06:41:51;;;;;;;6.32;2.20;;;;;;;6.47;100.00;95967.94;4991015;28;24448;-77
2022/09/23 06:44:17;;;;;;;2.53;2.00;;;;;;;6.59;100.00;95963.97;4990114;28;25016;-77
2022/09/23 06:46:44;;;;;;;2.92;2.20;;;;;;;6.43;100.00;95960.41;4990485;28;25000;-74
2022/09/23 06:49:12;;;;;;;2.72;2.20;;;;;;;6.51;100.00;95961.75;4990136;28;24430;-75
2022/09/23 06:51:39;;;;;;;4.87;2.03;;;;;;;6.62;100.00;95958.69;4990677;28;24437;-75
2022/09/23 06:54:05;;;;;;;4.80;2.30;;;;;;;6.58;100.00;95970.03;4989974;28;21328;-75
2022/09/23 06:56:32;;;;;;;2.58;2.05;;;;;;;6.60;100.00;95960.53;4990029;28;24448;-75
2022/09/23 06:59:00;;;;;;;3.78;2.40;;;;;;;6.70;100.00;95963.50;4990352;28;24447;-75
2022/09/23 07:01:26;;;;;;;2.30;1.98;;;;;;;6.66;100.00;95957.66;4990458;28;24425;-75
2022/09/23 07:03:53;;;;;;;2.95;1.83;;;;;;;6.93;100.00;95962.47;4985539;28;24794;-76
2022/09/23 07:06:19;;;;;;;4.47;1.95;;;;;;;7.11;100.00;95973.69;4990440;28;24437;-69
2022/09/23 07:08:47;;;;;;;2.55;2.35;;;;;;;7.20;100.00;95961.22;4990415;28;20780;-76
2022/09/23 07:11:14;;;;;;;2.85;1.92;;;;;;;7.10;100.00;95970.28;4990398;28;21249;-78
2022/09/23 07:13:42;;;;;;;3.60;2.30;;;;;;;7.18;100.00;95970.75;4989990;28;24444;-77
2022/09/23 07:16:10;;;;;;;4.38;2.50;;;;;;;7.41;100.00;95972.25;4990372;28;24839;-76
2022/09/23 07:18:39;;;;;;;3.88;2.35;;;;;;;7.52;100.00;95964.00;4983687;28;20788;-77
2022/09/23 07:21:09;;;;;;;2.42;2.22;;;;;;;7.63;100.00;95976.41;4990574;28;20780;-76
2022/09/23 07:23:36;;;;;;;3.95;2.55;;;;;;;7.76;100.00;95970.59;4990073;28;20756;-77
2022/09/23 07:26:04;;;;;;;3.50;2.30;;;;;;;7.96;100.00;95971.34;4990347;28;24475;-76
2022/09/23 07:28:31;;;;;;;5.13;2.40;;;;;;;8.08;100.00;95975.06;4990483;28;20818;-76
2022/09/23 07:31:03;;;;;;;3.70;2.53;;;;;;;8.11;100.00;95967.19;4986937;28;24452;-77
2022/09/23 07:33:31;;;;;;;5.55;2.80;;;;;;;8.23;100.00;95972.56;4990148;28;20711;-77
2022/09/23 07:35:57;;;;;;;3.72;2.90;;;;;;;8.29;100.00;95971.41;4987405;28;20838;-76
2022/09/23 07:38:28;;;;;;;5.30;3.47;;;;;;;8.34;100.00;95969.41;4988226;28;24981;-77
2022/09/23 07:41:00;;;;;;;5.27;3.67;;;;;;;8.34;100.00;95963.44;4990720;28;20764;-80
2022/09/23 07:43:28;;;;;;;5.03;3.60;;;;;;;8.44;100.00;95973.25;4989486;28;20723;-75
2022/09/23 07:45:54;;;;;;;6.05;3.72;;;;;;;8.55;100.00;95972.69;4995175;28;24439;-74
2022/09/23 07:48:21;;;;;;;7.38;3.85;;;;;;;8.65;100.00;95970.50;4998511;28;24496;-74
2022/09/23 07:50:49;;;;;;;7.57;3.78;;;;;;;8.72;100.00;95975.25;4992551;28;24436;-76
2022/09/23 07:53:15;;;;;;;5.65;3.88;;;;;;;8.74;100.00;95975.16;4992476;28;20780;-75
2022/09/23 07:55:42;;;;;;;6.45;3.83;;;;;;;8.93;100.00;95982.78;4993312;28;24460;-75
2022/09/23 07:58:08;;;;;;;9.43;3.95;;;;;;;8.99;100.00;95979.88;4992579;28;24433;-76
2022/09/23 08:00:35;;;;;;;5.05;3.13;;;;;;;9.12;100.00;95978.31;4992504;28;24433;-76
2022/09/23 08:03:02;;;;;;;5.88;3.40;;;;;;;9.40;100.00;95980.22;4992685;28;24994;-75
2022/09/23 08:05:28;;;;;;;6.18;3.38;;;;;;;9.42;100.00;95974.97;4992911;28;24832;-75
2022/09/23 08:07:56;;;;;;;4.03;3.05;;;;;;;9.54;100.00;95978.66;4998891;28;24831;-75
2022/09/23 08:10:23;;;;;;;3.70;2.80;;;;;;;9.56;100.00;95980.19;4984614;28;20870;-75
2022/09/23 08:12:49;;;;;;;5.50;3.15;;;;;;;9.81;100.00;95976.25;4998860;28;25085;-75
2022/09/23 08:15:16;;;;;;;6.82;3.38;;;;;;;9.98;100.00;95977.91;4992719;28;24807;-75
2022/09/23 08:17:43;;;;;;;5.68;2.90;;;;;;;10.28;100.00;95970.97;4992575;28;24516;-75
2022/09/23 08:20:43;;;;;;;4.03;2.47;;;;;;;10.44;100.00;95970.06;4992408;28;24472;-75
2022/09/23 08:22:59;;;;;;;4.70;3.10;;;;;;;10.65;99.55;95979.16;4989014;28;24508;-75
2022/09/23 08:25:26;;;;;;;3.55;2.63;;;;;;;10.82;99.74;95971.19;4992647;28;24436;-75
2022/09/23 08:27:52;;;;;;;3.90;2.50;;;;;;;11.03;97.66;95976.03;4988627;28;24990;-75
2022/09/23 08:30:19;;;;;;;3.33;2.42;;;;;;;11.22;96.79;95980.91;4992921;28;24981;-75
2022/09/23 08:32:45;;;;;;;6.80;2.63;;;;;;;11.37;94.70;95980.75;4991841;28;24842;-75
2022/09/23 08:35:11;;;;;;;2.85;2.30;;;;;;;11.30;95.38;95976.88;4992353;28;24464;-75
2022/09/23 08:37:38;;;;;;;3.83;2.55;;;;;;;11.20;94.54;95975.81;4996795;28;24444;-75
2022/09/23 08:40:07;;;;;;;4.15;2.30;;;;;;;11.17;94.88;95980.34;4995732;28;24439;-75
2022/09/23 08:42:37;;;;;;;5.50;2.70;;;;;;;11.00;95.16;95977.03;4996162;28;24440;-75
2022/09/23 08:45:05;;;;;;;6.70;2.73;;;;;;;10.90;96.80;95974.19;4992256;28;24507;-75
2022/09/23 08:47:43;;;;;;;3.55;2.25;;;;;;;11.04;98.12;95973.31;4996384;28;24448;-75
2022/09/23 08:50:15;;;;;;;4.25;2.75;;;;;;;11.23;96.34;95969.59;4991394;28;24515;-75
2022/09/23 08:52:48;;;;;;;4.47;2.70;;;;;;;11.43;96.06;95974.38;4991578;28;24436;-75
2022/09/23 08:55:18;;;;;;;3.75;2.70;;;;;;;11.58;93.83;95973.41;4991989;28;24534;-75
2022/09/23 08:57:57;;;;;;;6.07;2.80;;;;;;;11.76;93.51;95973.19;5001607;28;24805;-75
2022/09/23 09:00:31;;;;;;;7.40;2.60;;;;;;;12.03;92.58;95967.97;4987222;28;24433;-75
2022/09/23 09:02:58;;;;;;;5.30;2.63;;;;;;;12.14;91.60;95969.88;4998638;28;24992;-74
2022/09/23 09:05:27;;;;;;;5.47;2.67;;;;;;;12.01;91.41;95975.84;4993622;28;24436;-74
2022/09/23 09:07:56;;;;;;;4.65;2.60;;;;;;;12.14;90.46;95964.69;4991656;28;24447;-74
2022/09/23 09:10:28;;;;;;;3.05;2.10;;;;;;;12.57;92.13;95962.66;4990958;28;24440;-73
2022/09/23 09:13:02;;;;;;;5.18;2.63;;;;;;;12.98;87.64;95970.22;4991619;28;24444;-74
2022/09/23 09:15:29;;;;;;;3.65;2.17;;;;;;;13.20;87.14;95963.50;4991712;28;24453;-74
2022/09/23 09:18:02;;;;;;;5.53;2.70;;;;;;;13.29;86.12;95963.75;4991484;28;24444;-74
2022/09/23 09:20:38;;;;;;;3.33;2.47;;;;;;;13.60;85.56;95960.72;4993798;28;24436;-74
2022/09/23 09:23:16;;;;;;;3.47;2.45;;;;;;;13.75;87.56;95957.84;4996687;28;24429;-73
2022/09/23 09:25:46;;;;;;;3.63;2.53;;;;;;;13.42;84.27;95962.84;4994440;28;24460;-74
2022/09/23 09:28:17;;;;;;;3.60;2.17;;;;;;;13.68;84.04;95961.00;4991261;28;24819;-74
2022/09/23 09:30:47;;;;;;;3.88;2.70;;;;;;;14.18;84.77;95946.88;4990711;28;24440;-73
2022/09/23 09:33:16;;;;;;;3.33;2.38;;;;;;;14.34;79.75;95948.34;4990648;28;24457;-74
2022/09/23 09:35:57;;;;;;;5.25;2.95;;;;;;;13.94;82.15;95946.94;4991109;28;24815;-74
2022/09/23 09:38:24;;;;;;;8.02;2.40;;;;;;;14.14;81.32;95942.84;4989724;28;24444;-74
2022/09/23 09:40:52;;;;;;;7.43;3.00;;;;;;;14.15;81.05;95935.88;4990763;28;24429;-74
2022/09/23 09:43:22;;;;;;;3.17;2.27;;;;;;;14.13;82.70;95938.59;4991659;28;24994;-74
2022/09/23 09:46:00;;;;;;;5.15;2.30;;;;;;;14.01;83.79;95935.09;4990975;28;24433;-74
2022/09/23 09:48:36;;;;;;;4.57;2.30;;;;;;;14.04;82.99;95941.88;4983749;28;24448;-74
2022/09/23 09:51:18;;;;;;;3.80;2.40;;;;;;;13.98;82.96;95927.53;4989469;28;24459;-75
2022/09/23 09:53:44;;;;;;;5.60;2.28;;;;;;;14.24;82.93;95916.97;4985730;28;24947;-74
2022/09/23 09:56:15;;;;;;;9.05;2.75;;;;;;;14.74;79.29;95920.13;4989982;28;24475;-75
2022/09/23 09:58:48;;;;;;;6.22;2.25;;;;;;;15.20;82.33;95919.13;4991302;28;24551;-74
2022/09/23 10:01:19;;;;;;;3.72;2.10;;;;;;;15.66;77.18;95921.56;4991220;28;24432;-75
2022/09/23 10:03:46;;;;;;;9.90;2.40;;;;;;;16.05;80.26;95913.22;4991155;28;24444;-75
2022/09/23 10:06:16;;;;;;;2.75;1.80;;;;;;;16.21;73.32;95911.84;4991113;28;24432;-75
2022/09/23 10:08:48;;;;;;;3.38;1.90;;;;;;;15.82;75.39;95917.72;4991353;28;24448;-75
2022/09/23 10:11:18;;;;;;;7.80;2.28;;;;;;;15.51;76.29;95924.56;4989516;28;24409;-74
2022/09/23 10:14:03;;;;;;;4.90;2.00;;;;;;;15.32;77.68;95919.97;4990336;28;24970;-75
2022/09/23 10:16:32;;;;;;;3.28;2.13;;;;;;;15.68;78.42;95914.47;4984453;28;24445;-75
2022/09/23 10:19:00;;;;;;;5.43;2.03;;;;;;;16.31;75.60;95911.88;4990780;28;24440;-75
2022/09/23 10:21:34;;;;;;;4.95;2.10;;;;;;;16.65;71.67;95922.16;4991256;28;24441;-75
2022/09/23 10:24:02;;;;;;;4.22;2.30;;;;;;;16.37;73.01;95906.16;4990652;28;24961;-75
2022/09/23 10:26:32;;;;;;;3.63;1.77;;;;;;;16.79;74.95;95906.13;4992281;28;24437;-75
2022/09/23 10:29:02;;;;;;;4.90;2.08;;;;;;;17.45;69.51;95910.03;4985370;28;24448;-75
2022/09/23 10:31:30;;;;;;;4.90;2.40;;;;;;;17.72;75.54;95901.53;4990747;28;24437;-75
2022/09/23 10:33:59;;;;;;;4.05;2.10;;;;;;;17.55;68.91;95916.97;4990575;28;24445;-75
2022/09/23 10:36:27;;;;;;;2.75;1.80;;;;;;;17.57;67.82;95898.47;4990866;28;24547;-74
2022/09/23 10:46:36;;;;;;;4.47;2.20;;;;;;;17.44;67.70;95904.00;4989913;28;24578;-75
2022/09/23 10:47:51;;;;;;;5.38;2.20;;;;;;;18.00;67.18;95895.50;4977429;28;24500;-75
2022/09/23 10:50:31;;;;;;;2.35;2.00;;;;;;;18.44;67.88;95893.25;4990526;28;24440;-75
2022/09/23 10:53:13;;;;;;;3.10;1.88;;;;;;;18.27;64.98;95892.16;4990138;28;24429;-74
2022/09/23 10:55:58;;;;;;;5.82;1.98;;;;;;;17.58;63.01;95887.88;4993810;28;24878;-73
2022/09/23 10:58:58;;;;;;;3.47;2.20;;;;;;;17.22;64.49;95883.28;4990820;28;24509;-73
2022/09/23 11:01:37;;;;;;;5.35;2.45;;;;;;;16.76;67.84;95882.88;4987864;28;24538;-73
2022/09/23 11:04:23;;;;;;;4.73;2.03;;;;;;;16.57;67.75;95880.94;4989962;28;24437;-74
2022/09/23 11:07:07;;;;;;;3.65;1.80;;;;;;;16.68;70.60;95869.56;4990698;28;24783;-73
2022/09/23 11:09:50;;;;;;;3.22;2.05;;;;;;;16.84;71.69;95874.34;4990554;28;24431;-74
2022/09/23 11:12:31;;;;;;;5.03;2.50;;;;;;;17.93;70.23;95860.34;4990352;28;24544;-74
2022/09/23 11:15:16;;;;;;;3.10;2.30;;;;;;;17.95;69.77;95866.28;4990604;28;24523;-73
2022/09/23 11:18:04;;;;;;;5.85;2.55;;;;;;;17.83;73.36;95862.13;4986305;28;20850;-72
2022/09/23 11:20:42;;;;;;;6.60;2.47;;;;;;;18.07;68.95;95857.28;4989956;28;24432;-74
2022/09/23 11:23:39;;;;;;;2.90;2.40;;;;;;;18.55;68.42;95853.72;4994184;28;24779;-75
2022/09/23 11:26:19;;;;;;;6.25;2.40;;;;;;;18.50;67.07;95861.22;4984568;28;24432;-75
2022/09/23 11:29:10;;;;;;;4.05;2.30;;;;;;;17.78;65.29;95861.72;4997309;28;24443;-74
2022/09/23 11:31:46;;;;;;;8.30;2.78;;;;;;;18.21;69.07;95852.59;4988291;28;24432;-75
2022/09/23 11:34:34;;;;;;;5.47;2.75;;;;;;;18.09;70.05;95863.19;4993111;28;24437;-74
2022/09/23 11:37:05;;;;;;;6.10;2.83;;;;;;;18.11;70.33;95856.03;5002540;28;24453;-75
2022/09/23 11:39:37;;;;;;;2.80;2.42;;;;;;;18.03;68.71;95847.25;4994222;28;24433;-75
2022/09/23 11:42:11;;;;;;;3.03;2.00;;;;;;;17.97;69.06;95843.38;4994135;28;24424;-75
2022/09/23 11:44:43;;;;;;;5.13;2.50;;;;;;;17.38;67.27;95839.88;4997954;28;24538;-75
2022/09/23 11:47:18;;;;;;;6.90;2.30;;;;;;;17.13;68.57;95846.50;4993131;28;24432;-75
2022/09/23 11:49:52;;;;;;;4.60;2.50;;;;;;;17.03;69.20;95844.81;4993683;28;24452;-74
2022/09/23 11:52:25;;;;;;;3.50;2.50;;;;;;;16.77;69.47;95842.66;4993874;28;24500;-76
2022/09/23 11:54:57;;;;;;;5.03;2.20;;;;;;;16.97;76.45;95848.78;4993607;28;24823;-75
2022/09/23 11:57:32;;;;;;;3.85;2.20;;;;;;;17.14;74.87;95842.06;4988543;28;24469;-75